sensor_id;sensor_type;location;lat;lon;timestamp;temperature;humidity
14378;DHT22;7272;53.668;9.578;2024-02-14T00:00:07;7.00;99.90
14378;DHT22;7272;53.668;9.578;2024-02-14T00:03:14;7.00;99.90
14378;DHT22;7272;53.668;9.578;2024-02-14T00:06:15;7.00;99.90
14378;DHT22;7272;53.668;9.578;2024-02-14T00:09:17;6.90;99.90
14378;DHT22;7272;53.668;9.578;2024-02-14T00:12:18;6.90;99.90
14378;DHT22;7272;53.668;9.578;2024-02-14T00:15:19;6.90;99.90
14378;DHT22;7272;53.668;9.578;2024-02-14T00:18:21;6.90;99.90
14378;DHT22;7272;53.668;9.578;2024-02-14T00:21:23;6.90;99.90
14378;DHT22;7272;53.668;9.578;2024-02-14T00:24:25;6.90;99.90
14378;DHT22;7272;53.668;9.578;2024-02-14T00:27:27;6.90;99.90
14378;DHT22;7272;53.668;9.578;2024-02-14T00:30:28;6.90;99.90
14378;DHT22;7272;53.668;9.578;2024-02-14T00:33:45;6.80;99.90
14378;DHT22;7272;53.668;9.578;2024-02-14T00:36:47;6.80;99.90
14378;DHT22;7272;53.668;9.578;2024-02-14T00:39:48;6.80;99.90
14378;DHT22;7272;53.668;9.578;2024-02-14T00:42:50;6.80;99.90
14378;DHT22;7272;53.668;9.578;2024-02-14T00:45:51;6.80;99.90
14378;DHT22;7272;53.668;9.578;2024-02-14T00:48:53;6.90;99.90
14378;DHT22;7272;53.668;9.578;2024-02-14T00:51:55;6.90;99.90
14378;DHT22;7272;53.668;9.578;2024-02-14T00:54:56;6.90;99.90
14378;DHT22;7272;53.668;9.578;2024-02-14T00:57:58;6.90;99.90
14378;DHT22;7272;53.668;9.578;2024-02-14T01:00:59;6.90;99.90
14378;DHT22;7272;53.668;9.578;2024-02-14T01:04:01;6.90;99.90
14378;DHT22;7272;53.668;9.578;2024-02-14T01:07:03;6.90;99.90
14378;DHT22;7272;53.668;9.578;2024-02-14T01:10:05;6.90;99.90
14378;DHT22;7272;53.668;9.578;2024-02-14T01:13:08;6.90;99.90
14378;DHT22;7272;53.668;9.578;2024-02-14T01:16:10;6.90;99.90
14378;DHT22;7272;53.668;9.578;2024-02-14T01:19:13;6.90;99.90
14378;DHT22;7272;53.668;9.578;2024-02-14T01:22:14;6.90;99.90
14378;DHT22;7272;53.668;9.578;2024-02-14T01:25:34;6.90;99.90
14378;DHT22;7272;53.668;9.578;2024-02-14T01:28:35;6.90;99.90
14378;DHT22;7272;53.668;9.578;2024-02-14T01:31:36;6.90;99.90
14378;DHT22;7272;53.668;9.578;2024-02-14T01:34:38;6.90;99.90
14378;DHT22;7272;53.668;9.578;2024-02-14T01:37:39;6.90;99.90
14378;DHT22;7272;53.668;9.578;2024-02-14T01:40:42;6.90;99.90
14378;DHT22;7272;53.668;9.578;2024-02-14T01:43:44;6.90;99.90
14378;DHT22;7272;53.668;9.578;2024-02-14T01:46:45;6.90;99.90
14378;DHT22;7272;53.668;9.578;2024-02-14T01:49:47;6.90;99.90
14378;DHT22;7272;53.668;9.578;2024-02-14T01:52:49;6.80;99.90
14378;DHT22;7272;53.668;9.578;2024-02-14T01:55:50;6.80;99.90
14378;DHT22;7272;53.668;9.578;2024-02-14T01:58:52;6.90;99.90
14378;DHT22;7272;53.668;9.578;2024-02-14T02:01:54;6.80;99.90
14378;DHT22;7272;53.668;9.578;2024-02-14T02:04:56;6.90;99.90
14378;DHT22;7272;53.668;9.578;2024-02-14T02:07:57;6.90;99.90
14378;DHT22;7272;53.668;9.578;2024-02-14T02:10:58;6.90;99.90
14378;DHT22;7272;53.668;9.578;2024-02-14T02:14:19;6.80;99.90
14378;DHT22;7272;53.668;9.578;2024-02-14T02:17:42;6.80;99.90
14378;DHT22;7272;53.668;9.578;2024-02-14T02:21:04;6.80;99.90
14378;DHT22;7272;53.668;9.578;2024-02-14T02:24:08;6.80;99.90
14378;DHT22;7272;53.668;9.578;2024-02-14T02:27:09;6.80;99.90
14378;DHT22;7272;53.668;9.578;2024-02-14T02:30:30;6.80;99.90
14378;DHT22;7272;53.668;9.578;2024-02-14T02:33:31;6.80;99.90
14378;DHT22;7272;53.668;9.578;2024-02-14T02:36:32;6.80;99.90
14378;DHT22;7272;53.668;9.578;2024-02-14T02:39:54;6.80;99.90
14378;DHT22;7272;53.668;9.578;2024-02-14T02:43:34;6.90;99.90
14378;DHT22;7272;53.668;9.578;2024-02-14T02:46:56;6.90;99.90
14378;DHT22;7272;53.668;9.578;2024-02-14T02:50:18;6.80;99.90
14378;DHT22;7272;53.668;9.578;2024-02-14T02:53:42;6.90;99.90
14378;DHT22;7272;53.668;9.578;2024-02-14T02:57:04;6.90;99.90
14378;DHT22;7272;53.668;9.578;2024-02-14T03:00:07;6.90;99.90
14378;DHT22;7272;53.668;9.578;2024-02-14T03:03:11;6.90;99.90
14378;DHT22;7272;53.668;9.578;2024-02-14T03:06:30;6.90;99.90
14378;DHT22;7272;53.668;9.578;2024-02-14T03:09:44;7.00;99.90
14378;DHT22;7272;53.668;9.578;2024-02-14T03:13:06;7.00;99.90
14378;DHT22;7272;53.668;9.578;2024-02-14T03:16:29;7.00;99.90
14378;DHT22;7272;53.668;9.578;2024-02-14T03:19:31;7.00;99.90
14378;DHT22;7272;53.668;9.578;2024-02-14T03:22:34;6.90;99.90
14378;DHT22;7272;53.668;9.578;2024-02-14T03:25:35;7.00;99.90
14378;DHT22;7272;53.668;9.578;2024-02-14T03:28:38;7.00;99.90
14378;DHT22;7272;53.668;9.578;2024-02-14T03:31:40;6.90;99.90
14378;DHT22;7272;53.668;9.578;2024-02-14T03:34:41;6.90;99.90
14378;DHT22;7272;53.668;9.578;2024-02-14T03:37:43;7.00;99.90
14378;DHT22;7272;53.668;9.578;2024-02-14T03:40:48;6.90;99.90
14378;DHT22;7272;53.668;9.578;2024-02-14T03:43:50;6.90;99.90
14378;DHT22;7272;53.668;9.578;2024-02-14T03:46:51;6.90;99.90
14378;DHT22;7272;53.668;9.578;2024-02-14T03:49:52;6.90;99.90
14378;DHT22;7272;53.668;9.578;2024-02-14T03:52:53;6.90;99.90
14378;DHT22;7272;53.668;9.578;2024-02-14T03:55:56;6.90;99.90
14378;DHT22;7272;53.668;9.578;2024-02-14T03:58:58;6.90;99.90
14378;DHT22;7272;53.668;9.578;2024-02-14T04:02:00;6.90;99.90
14378;DHT22;7272;53.668;9.578;2024-02-14T04:05:01;6.80;99.90
14378;DHT22;7272;53.668;9.578;2024-02-14T04:08:05;6.80;99.90
14378;DHT22;7272;53.668;9.578;2024-02-14T04:11:10;6.80;99.90
14378;DHT22;7272;53.668;9.578;2024-02-14T04:14:14;6.80;99.90
14378;DHT22;7272;53.668;9.578;2024-02-14T04:17:15;6.80;99.90
14378;DHT22;7272;53.668;9.578;2024-02-14T04:20:17;6.90;99.90
14378;DHT22;7272;53.668;9.578;2024-02-14T04:23:18;6.90;99.90
14378;DHT22;7272;53.668;9.578;2024-02-14T04:26:20;6.90;99.90
14378;DHT22;7272;53.668;9.578;2024-02-14T04:29:22;6.90;99.90
14378;DHT22;7272;53.668;9.578;2024-02-14T04:32:24;6.90;99.90
14378;DHT22;7272;53.668;9.578;2024-02-14T04:35:25;6.90;99.90
14378;DHT22;7272;53.668;9.578;2024-02-14T04:38:26;6.90;99.90
14378;DHT22;7272;53.668;9.578;2024-02-14T04:41:29;6.90;99.90
14378;DHT22;7272;53.668;9.578;2024-02-14T04:44:31;6.90;99.90
14378;DHT22;7272;53.668;9.578;2024-02-14T04:47:33;6.90;99.90
14378;DHT22;7272;53.668;9.578;2024-02-14T04:50:34;6.90;99.90
14378;DHT22;7272;53.668;9.578;2024-02-14T04:53:35;6.90;99.90
14378;DHT22;7272;53.668;9.578;2024-02-14T04:56:36;6.90;99.90
14378;DHT22;7272;53.668;9.578;2024-02-14T04:59:38;6.90;99.90
14378;DHT22;7272;53.668;9.578;2024-02-14T05:02:40;6.90;99.90
14378;DHT22;7272;53.668;9.578;2024-02-14T05:05:41;6.90;99.90
14378;DHT22;7272;53.668;9.578;2024-02-14T05:08:43;6.90;99.90
14378;DHT22;7272;53.668;9.578;2024-02-14T05:11:44;7.00;99.90
14378;DHT22;7272;53.668;9.578;2024-02-14T05:14:46;7.00;99.90
14378;DHT22;7272;53.668;9.578;2024-02-14T05:17:48;7.00;99.90
14378;DHT22;7272;53.668;9.578;2024-02-14T05:20:50;7.00;99.90
14378;DHT22;7272;53.668;9.578;2024-02-14T05:23:51;7.00;99.90
14378;DHT22;7272;53.668;9.578;2024-02-14T05:26:53;7.00;99.90
14378;DHT22;7272;53.668;9.578;2024-02-14T05:29:54;7.00;99.90
14378;DHT22;7272;53.668;9.578;2024-02-14T05:32:56;7.00;99.90
14378;DHT22;7272;53.668;9.578;2024-02-14T05:35:57;7.10;99.90
14378;DHT22;7272;53.668;9.578;2024-02-14T05:38:58;7.10;99.90
14378;DHT22;7272;53.668;9.578;2024-02-14T05:41:59;7.10;99.90
14378;DHT22;7272;53.668;9.578;2024-02-14T05:45:01;7.10;99.90
14378;DHT22;7272;53.668;9.578;2024-02-14T05:48:06;7.10;99.90
14378;DHT22;7272;53.668;9.578;2024-02-14T05:51:08;7.10;99.90
14378;DHT22;7272;53.668;9.578;2024-02-14T05:54:09;7.10;99.90
14378;DHT22;7272;53.668;9.578;2024-02-14T05:57:10;7.10;99.90
14378;DHT22;7272;53.668;9.578;2024-02-14T06:00:13;7.20;99.90
14378;DHT22;7272;53.668;9.578;2024-02-14T06:03:14;7.20;99.90
14378;DHT22;7272;53.668;9.578;2024-02-14T06:06:16;7.20;99.90
14378;DHT22;7272;53.668;9.578;2024-02-14T06:09:17;7.20;99.90
14378;DHT22;7272;53.668;9.578;2024-02-14T06:12:18;7.30;99.90
14378;DHT22;7272;53.668;9.578;2024-02-14T06:15:20;7.30;99.90
14378;DHT22;7272;53.668;9.578;2024-02-14T06:18:22;7.30;99.90
14378;DHT22;7272;53.668;9.578;2024-02-14T06:21:23;7.30;99.90
14378;DHT22;7272;53.668;9.578;2024-02-14T06:24:25;7.30;99.90
14378;DHT22;7272;53.668;9.578;2024-02-14T06:27:26;7.30;99.90
14378;DHT22;7272;53.668;9.578;2024-02-14T06:30:29;7.30;99.90
14378;DHT22;7272;53.668;9.578;2024-02-14T06:33:30;7.30;99.90
14378;DHT22;7272;53.668;9.578;2024-02-14T06:36:31;7.30;99.90
14378;DHT22;7272;53.668;9.578;2024-02-14T06:39:32;7.40;99.90
14378;DHT22;7272;53.668;9.578;2024-02-14T06:42:33;7.40;99.90
14378;DHT22;7272;53.668;9.578;2024-02-14T06:45:35;7.40;99.90
14378;DHT22;7272;53.668;9.578;2024-02-14T06:48:48;7.40;99.90
14378;DHT22;7272;53.668;9.578;2024-02-14T06:51:49;7.40;99.90
14378;DHT22;7272;53.668;9.578;2024-02-14T06:54:50;7.50;99.90
14378;DHT22;7272;53.668;9.578;2024-02-14T06:57:51;7.50;99.90
14378;DHT22;7272;53.668;9.578;2024-02-14T07:00:53;7.50;99.90
14378;DHT22;7272;53.668;9.578;2024-02-14T07:03:54;7.50;99.90
14378;DHT22;7272;53.668;9.578;2024-02-14T07:06:56;7.50;99.90
14378;DHT22;7272;53.668;9.578;2024-02-14T07:09:57;7.50;99.90
14378;DHT22;7272;53.668;9.578;2024-02-14T07:12:58;7.60;99.90
14378;DHT22;7272;53.668;9.578;2024-02-14T07:16:00;7.60;99.90
14378;DHT22;7272;53.668;9.578;2024-02-14T07:19:01;7.60;99.90
14378;DHT22;7272;53.668;9.578;2024-02-14T07:22:03;7.60;99.90
14378;DHT22;7272;53.668;9.578;2024-02-14T07:25:04;7.60;99.90
14378;DHT22;7272;53.668;9.578;2024-02-14T07:28:06;7.70;99.90
14378;DHT22;7272;53.668;9.578;2024-02-14T07:31:08;7.70;99.90
14378;DHT22;7272;53.668;9.578;2024-02-14T07:34:09;7.70;99.90
14378;DHT22;7272;53.668;9.578;2024-02-14T07:37:10;7.70;99.90
14378;DHT22;7272;53.668;9.578;2024-02-14T07:40:12;7.80;99.90
14378;DHT22;7272;53.668;9.578;2024-02-14T07:43:30;7.80;99.90
14378;DHT22;7272;53.668;9.578;2024-02-14T07:46:32;7.80;99.90
14378;DHT22;7272;53.668;9.578;2024-02-14T07:49:33;7.80;99.90
14378;DHT22;7272;53.668;9.578;2024-02-14T07:52:34;7.90;99.90
14378;DHT22;7272;53.668;9.578;2024-02-14T07:55:36;7.90;99.90
14378;DHT22;7272;53.668;9.578;2024-02-14T07:58:38;7.90;99.90
14378;DHT22;7272;53.668;9.578;2024-02-14T08:01:40;8.00;99.90
14378;DHT22;7272;53.668;9.578;2024-02-14T08:04:43;8.00;99.90
14378;DHT22;7272;53.668;9.578;2024-02-14T08:07:44;8.00;99.90
14378;DHT22;7272;53.668;9.578;2024-02-14T08:10:46;8.00;99.90
14378;DHT22;7272;53.668;9.578;2024-02-14T08:13:47;8.10;99.90
14378;DHT22;7272;53.668;9.578;2024-02-14T08:16:49;8.10;99.90
14378;DHT22;7272;53.668;9.578;2024-02-14T08:19:50;8.10;99.90
14378;DHT22;7272;53.668;9.578;2024-02-14T08:22:51;8.10;99.90
14378;DHT22;7272;53.668;9.578;2024-02-14T08:25:52;8.20;99.90
14378;DHT22;7272;53.668;9.578;2024-02-14T08:28:54;8.30;99.90
14378;DHT22;7272;53.668;9.578;2024-02-14T08:31:55;8.30;99.90
14378;DHT22;7272;53.668;9.578;2024-02-14T08:34:57;8.40;99.90
14378;DHT22;7272;53.668;9.578;2024-02-14T08:37:58;8.40;99.90
14378;DHT22;7272;53.668;9.578;2024-02-14T08:40:59;8.40;99.90
14378;DHT22;7272;53.668;9.578;2024-02-14T08:44:00;8.40;99.90
14378;DHT22;7272;53.668;9.578;2024-02-14T08:47:03;8.50;99.90
14378;DHT22;7272;53.668;9.578;2024-02-14T08:50:04;8.60;99.90
14378;DHT22;7272;53.668;9.578;2024-02-14T08:53:06;8.60;99.90
14378;DHT22;7272;53.668;9.578;2024-02-14T08:56:07;8.60;99.90
14378;DHT22;7272;53.668;9.578;2024-02-14T08:59:09;8.70;99.90
14378;DHT22;7272;53.668;9.578;2024-02-14T09:02:12;8.80;99.90
14378;DHT22;7272;53.668;9.578;2024-02-14T09:05:14;8.80;99.90
14378;DHT22;7272;53.668;9.578;2024-02-14T09:08:15;8.90;99.90
14378;DHT22;7272;53.668;9.578;2024-02-14T09:11:16;9.00;99.90
14378;DHT22;7272;53.668;9.578;2024-02-14T09:14:17;9.00;99.90
14378;DHT22;7272;53.668;9.578;2024-02-14T09:17:19;9.00;99.90
14378;DHT22;7272;53.668;9.578;2024-02-14T09:20:20;9.10;99.90
14378;DHT22;7272;53.668;9.578;2024-02-14T09:23:22;9.20;99.90
14378;DHT22;7272;53.668;9.578;2024-02-14T09:26:23;9.20;99.90
14378;DHT22;7272;53.668;9.578;2024-02-14T09:29:24;9.30;99.90
14378;DHT22;7272;53.668;9.578;2024-02-14T09:32:26;9.40;99.90
14378;DHT22;7272;53.668;9.578;2024-02-14T09:35:27;9.50;99.90
14378;DHT22;7272;53.668;9.578;2024-02-14T09:38:29;9.60;99.90
14378;DHT22;7272;53.668;9.578;2024-02-14T09:41:35;9.60;99.90
14378;DHT22;7272;53.668;9.578;2024-02-14T09:44:37;9.60;99.90
14378;DHT22;7272;53.668;9.578;2024-02-14T09:47:40;9.70;99.90
14378;DHT22;7272;53.668;9.578;2024-02-14T09:50:41;9.80;99.90
14378;DHT22;7272;53.668;9.578;2024-02-14T09:53:43;9.80;99.90
14378;DHT22;7272;53.668;9.578;2024-02-14T09:56:48;9.90;99.90
14378;DHT22;7272;53.668;9.578;2024-02-14T09:59:54;10.00;99.90
14378;DHT22;7272;53.668;9.578;2024-02-14T10:02:57;10.00;99.90
14378;DHT22;7272;53.668;9.578;2024-02-14T10:05:59;10.10;99.90
14378;DHT22;7272;53.668;9.578;2024-02-14T10:09:00;10.20;99.90
14378;DHT22;7272;53.668;9.578;2024-02-14T10:12:02;10.20;99.90
14378;DHT22;7272;53.668;9.578;2024-02-14T10:15:06;10.30;99.90
14378;DHT22;7272;53.668;9.578;2024-02-14T10:18:08;10.40;99.90
14378;DHT22;7272;53.668;9.578;2024-02-14T10:21:14;10.50;99.90
14378;DHT22;7272;53.668;9.578;2024-02-14T10:24:18;10.50;99.90
14378;DHT22;7272;53.668;9.578;2024-02-14T10:27:21;10.60;99.90
14378;DHT22;7272;53.668;9.578;2024-02-14T10:30:22;10.60;99.90
14378;DHT22;7272;53.668;9.578;2024-02-14T10:33:27;10.60;99.90
14378;DHT22;7272;53.668;9.578;2024-02-14T10:36:31;10.70;99.90
14378;DHT22;7272;53.668;9.578;2024-02-14T10:39:35;10.80;99.90
14378;DHT22;7272;53.668;9.578;2024-02-14T10:42:39;10.80;99.90
14378;DHT22;7272;53.668;9.578;2024-02-14T10:45:40;10.80;99.90
14378;DHT22;7272;53.668;9.578;2024-02-14T10:48:42;10.90;99.90
14378;DHT22;7272;53.668;9.578;2024-02-14T10:51:43;10.90;99.90
14378;DHT22;7272;53.668;9.578;2024-02-14T10:54:54;11.00;99.90
14378;DHT22;7272;53.668;9.578;2024-02-14T10:57:57;11.10;99.90
14378;DHT22;7272;53.668;9.578;2024-02-14T11:00:59;11.10;99.90
14378;DHT22;7272;53.668;9.578;2024-02-14T11:04:02;11.20;99.90
14378;DHT22;7272;53.668;9.578;2024-02-14T11:07:09;11.20;99.90
14378;DHT22;7272;53.668;9.578;2024-02-14T11:10:13;11.30;99.90
14378;DHT22;7272;53.668;9.578;2024-02-14T11:13:14;11.30;99.90
14378;DHT22;7272;53.668;9.578;2024-02-14T11:16:16;11.40;99.90
14378;DHT22;7272;53.668;9.578;2024-02-14T11:19:17;11.40;99.90
14378;DHT22;7272;53.668;9.578;2024-02-14T11:22:21;11.50;99.90
14378;DHT22;7272;53.668;9.578;2024-02-14T11:25:23;11.50;99.90
14378;DHT22;7272;53.668;9.578;2024-02-14T11:28:29;11.60;99.90
14378;DHT22;7272;53.668;9.578;2024-02-14T11:31:34;11.70;99.90
14378;DHT22;7272;53.668;9.578;2024-02-14T11:34:39;11.80;99.90
14378;DHT22;7272;53.668;9.578;2024-02-14T11:37:40;11.90;99.90
14378;DHT22;7272;53.668;9.578;2024-02-14T11:40:42;11.90;99.90
14378;DHT22;7272;53.668;9.578;2024-02-14T11:43:51;12.00;99.90
14378;DHT22;7272;53.668;9.578;2024-02-14T11:46:52;12.00;99.90
14378;DHT22;7272;53.668;9.578;2024-02-14T11:49:54;12.00;99.90
14378;DHT22;7272;53.668;9.578;2024-02-14T11:52:56;12.00;99.90
14378;DHT22;7272;53.668;9.578;2024-02-14T11:55:57;12.10;99.90
14378;DHT22;7272;53.668;9.578;2024-02-14T11:58:59;12.10;99.90
14378;DHT22;7272;53.668;9.578;2024-02-14T12:02:01;12.20;99.90
14378;DHT22;7272;53.668;9.578;2024-02-14T12:05:04;12.20;99.90
14378;DHT22;7272;53.668;9.578;2024-02-14T12:08:06;12.20;99.90
14378;DHT22;7272;53.668;9.578;2024-02-14T12:11:08;12.20;99.90
14378;DHT22;7272;53.668;9.578;2024-02-14T12:14:10;12.20;99.90
14378;DHT22;7272;53.668;9.578;2024-02-14T12:17:11;12.30;99.90
14378;DHT22;7272;53.668;9.578;2024-02-14T12:20:14;12.30;99.90
14378;DHT22;7272;53.668;9.578;2024-02-14T12:23:15;12.40;99.90
14378;DHT22;7272;53.668;9.578;2024-02-14T12:26:18;12.40;99.90
14378;DHT22;7272;53.668;9.578;2024-02-14T12:29:23;12.40;99.90
14378;DHT22;7272;53.668;9.578;2024-02-14T12:32:25;12.40;99.90
14378;DHT22;7272;53.668;9.578;2024-02-14T12:35:26;12.50;99.90
14378;DHT22;7272;53.668;9.578;2024-02-14T12:38:27;12.50;99.90
14378;DHT22;7272;53.668;9.578;2024-02-14T12:41:29;12.60;99.90
14378;DHT22;7272;53.668;9.578;2024-02-14T12:44:31;12.50;99.90
14378;DHT22;7272;53.668;9.578;2024-02-14T12:47:32;12.60;99.90
14378;DHT22;7272;53.668;9.578;2024-02-14T12:50:36;12.60;99.90
14378;DHT22;7272;53.668;9.578;2024-02-14T12:53:39;12.50;99.90
14378;DHT22;7272;53.668;9.578;2024-02-14T12:56:40;12.60;99.90
14378;DHT22;7272;53.668;9.578;2024-02-14T12:59:41;12.60;99.90
14378;DHT22;7272;53.668;9.578;2024-02-14T13:02:42;12.60;99.90
14378;DHT22;7272;53.668;9.578;2024-02-14T13:05:44;12.60;99.90
14378;DHT22;7272;53.668;9.578;2024-02-14T13:08:45;12.70;99.90
14378;DHT22;7272;53.668;9.578;2024-02-14T13:11:47;12.70;99.90
14378;DHT22;7272;53.668;9.578;2024-02-14T13:14:48;12.70;99.90
14378;DHT22;7272;53.668;9.578;2024-02-14T13:17:49;12.70;99.90
14378;DHT22;7272;53.668;9.578;2024-02-14T13:20:51;12.80;99.90
14378;DHT22;7272;53.668;9.578;2024-02-14T13:23:59;12.80;99.90
14378;DHT22;7272;53.668;9.578;2024-02-14T13:27:01;12.80;99.90
14378;DHT22;7272;53.668;9.578;2024-02-14T13:30:02;12.80;99.90
14378;DHT22;7272;53.668;9.578;2024-02-14T13:33:04;12.80;99.90
14378;DHT22;7272;53.668;9.578;2024-02-14T13:36:07;12.80;99.90
14378;DHT22;7272;53.668;9.578;2024-02-14T13:39:08;12.80;99.90
14378;DHT22;7272;53.668;9.578;2024-02-14T13:42:09;12.80;99.90
14378;DHT22;7272;53.668;9.578;2024-02-14T13:45:10;12.70;99.90
14378;DHT22;7272;53.668;9.578;2024-02-14T13:48:12;12.70;99.90
14378;DHT22;7272;53.668;9.578;2024-02-14T13:51:14;12.70;99.90
14378;DHT22;7272;53.668;9.578;2024-02-14T13:54:15;12.70;99.90
14378;DHT22;7272;53.668;9.578;2024-02-14T13:57:17;12.80;99.90
14378;DHT22;7272;53.668;9.578;2024-02-14T14:00:18;12.80;99.90
14378;DHT22;7272;53.668;9.578;2024-02-14T14:03:19;12.80;99.90
14378;DHT22;7272;53.668;9.578;2024-02-14T14:06:21;12.70;99.90
14378;DHT22;7272;53.668;9.578;2024-02-14T14:09:24;12.80;99.90
14378;DHT22;7272;53.668;9.578;2024-02-14T14:12:27;12.70;99.90
14378;DHT22;7272;53.668;9.578;2024-02-14T14:15:28;12.70;99.90
14378;DHT22;7272;53.668;9.578;2024-02-14T14:18:33;12.70;99.90
14378;DHT22;7272;53.668;9.578;2024-02-14T14:21:35;12.70;99.90
14378;DHT22;7272;53.668;9.578;2024-02-14T14:24:36;12.70;99.90
14378;DHT22;7272;53.668;9.578;2024-02-14T14:27:37;12.70;99.90
14378;DHT22;7272;53.668;9.578;2024-02-14T14:30:38;12.70;99.90
14378;DHT22;7272;53.668;9.578;2024-02-14T14:33:40;12.70;99.90
14378;DHT22;7272;53.668;9.578;2024-02-14T14:36:43;12.70;99.90
14378;DHT22;7272;53.668;9.578;2024-02-14T14:39:45;12.70;99.90
14378;DHT22;7272;53.668;9.578;2024-02-14T14:42:46;12.60;99.90
14378;DHT22;7272;53.668;9.578;2024-02-14T14:45:47;12.70;99.90
14378;DHT22;7272;53.668;9.578;2024-02-14T14:48:50;12.60;99.90
14378;DHT22;7272;53.668;9.578;2024-02-14T14:51:51;12.60;99.90
14378;DHT22;7272;53.668;9.578;2024-02-14T14:54:54;12.60;99.90
14378;DHT22;7272;53.668;9.578;2024-02-14T14:57:55;12.60;99.90
14378;DHT22;7272;53.668;9.578;2024-02-14T15:00:57;12.70;99.90
14378;DHT22;7272;53.668;9.578;2024-02-14T15:03:59;12.60;99.90
14378;DHT22;7272;53.668;9.578;2024-02-14T15:07:01;12.60;99.90
14378;DHT22;7272;53.668;9.578;2024-02-14T15:10:03;12.60;99.90
14378;DHT22;7272;53.668;9.578;2024-02-14T15:13:06;12.50;99.90
14378;DHT22;7272;53.668;9.578;2024-02-14T15:16:09;12.50;99.90
14378;DHT22;7272;53.668;9.578;2024-02-14T15:19:10;12.50;99.90
14378;DHT22;7272;53.668;9.578;2024-02-14T15:22:12;12.50;99.90
14378;DHT22;7272;53.668;9.578;2024-02-14T15:25:14;12.40;99.90
14378;DHT22;7272;53.668;9.578;2024-02-14T15:28:15;12.40;99.90
14378;DHT22;7272;53.668;9.578;2024-02-14T15:31:22;12.40;99.90
14378;DHT22;7272;53.668;9.578;2024-02-14T15:34:42;12.40;99.90
14378;DHT22;7272;53.668;9.578;2024-02-14T15:37:43;12.40;99.90
14378;DHT22;7272;53.668;9.578;2024-02-14T15:40:50;12.40;99.90
14378;DHT22;7272;53.668;9.578;2024-02-14T15:43:53;12.40;99.90
14378;DHT22;7272;53.668;9.578;2024-02-14T15:46:54;12.40;99.90
14378;DHT22;7272;53.668;9.578;2024-02-14T15:49:56;12.40;99.90
14378;DHT22;7272;53.668;9.578;2024-02-14T15:52:58;12.40;99.90
14378;DHT22;7272;53.668;9.578;2024-02-14T15:55:59;12.40;99.90
14378;DHT22;7272;53.668;9.578;2024-02-14T15:59:02;12.40;99.90
14378;DHT22;7272;53.668;9.578;2024-02-14T16:02:03;12.40;99.90
14378;DHT22;7272;53.668;9.578;2024-02-14T16:05:05;12.40;99.90
14378;DHT22;7272;53.668;9.578;2024-02-14T16:08:14;12.40;99.90
14378;DHT22;7272;53.668;9.578;2024-02-14T16:11:16;12.40;99.90
14378;DHT22;7272;53.668;9.578;2024-02-14T16:14:17;12.40;99.90
14378;DHT22;7272;53.668;9.578;2024-02-14T16:17:20;12.40;99.90
14378;DHT22;7272;53.668;9.578;2024-02-14T16:20:21;12.40;99.90
14378;DHT22;7272;53.668;9.578;2024-02-14T16:23:23;12.40;99.90
14378;DHT22;7272;53.668;9.578;2024-02-14T16:26:24;12.30;99.90
14378;DHT22;7272;53.668;9.578;2024-02-14T16:29:25;12.30;99.90
14378;DHT22;7272;53.668;9.578;2024-02-14T16:32:26;12.30;99.90
14378;DHT22;7272;53.668;9.578;2024-02-14T16:35:28;12.30;99.90
14378;DHT22;7272;53.668;9.578;2024-02-14T16:38:31;12.30;99.90
14378;DHT22;7272;53.668;9.578;2024-02-14T16:41:33;12.30;99.90
14378;DHT22;7272;53.668;9.578;2024-02-14T16:44:34;12.30;99.90
14378;DHT22;7272;53.668;9.578;2024-02-14T16:47:36;12.30;99.90
14378;DHT22;7272;53.668;9.578;2024-02-14T16:50:38;12.30;99.90
14378;DHT22;7272;53.668;9.578;2024-02-14T16:53:40;12.30;99.90
14378;DHT22;7272;53.668;9.578;2024-02-14T16:56:41;12.30;99.90
14378;DHT22;7272;53.668;9.578;2024-02-14T16:59:42;12.30;99.90
14378;DHT22;7272;53.668;9.578;2024-02-14T17:02:45;12.30;99.90
14378;DHT22;7272;53.668;9.578;2024-02-14T17:05:47;12.30;99.90
14378;DHT22;7272;53.668;9.578;2024-02-14T17:08:48;12.30;99.90
14378;DHT22;7272;53.668;9.578;2024-02-14T17:11:50;12.30;99.90
14378;DHT22;7272;53.668;9.578;2024-02-14T17:14:51;12.30;99.90
14378;DHT22;7272;53.668;9.578;2024-02-14T17:17:54;12.30;99.90
14378;DHT22;7272;53.668;9.578;2024-02-14T17:20:55;12.30;99.90
14378;DHT22;7272;53.668;9.578;2024-02-14T17:23:57;12.20;99.90
14378;DHT22;7272;53.668;9.578;2024-02-14T17:26:58;12.20;99.90
14378;DHT22;7272;53.668;9.578;2024-02-14T17:30:00;12.20;99.90
14378;DHT22;7272;53.668;9.578;2024-02-14T17:33:01;12.20;99.90
14378;DHT22;7272;53.668;9.578;2024-02-14T17:36:05;12.20;99.90
14378;DHT22;7272;53.668;9.578;2024-02-14T17:39:07;12.20;99.90
14378;DHT22;7272;53.668;9.578;2024-02-14T17:42:08;12.20;99.90
14378;DHT22;7272;53.668;9.578;2024-02-14T17:45:10;12.20;99.90
14378;DHT22;7272;53.668;9.578;2024-02-14T17:48:12;12.20;99.90
14378;DHT22;7272;53.668;9.578;2024-02-14T17:51:13;12.20;99.90
14378;DHT22;7272;53.668;9.578;2024-02-14T17:54:15;12.20;99.90
14378;DHT22;7272;53.668;9.578;2024-02-14T17:57:18;12.20;99.90
14378;DHT22;7272;53.668;9.578;2024-02-14T18:00:19;12.20;99.90
14378;DHT22;7272;53.668;9.578;2024-02-14T18:03:21;12.20;99.90
14378;DHT22;7272;53.668;9.578;2024-02-14T18:06:22;12.10;99.90
14378;DHT22;7272;53.668;9.578;2024-02-14T18:09:24;12.10;99.90
14378;DHT22;7272;53.668;9.578;2024-02-14T18:12:27;12.10;99.90
14378;DHT22;7272;53.668;9.578;2024-02-14T18:15:28;12.10;99.90
14378;DHT22;7272;53.668;9.578;2024-02-14T18:18:30;12.10;99.90
14378;DHT22;7272;53.668;9.578;2024-02-14T18:21:31;12.10;99.90
14378;DHT22;7272;53.668;9.578;2024-02-14T18:24:33;12.10;99.90
14378;DHT22;7272;53.668;9.578;2024-02-14T18:27:35;12.10;99.90
14378;DHT22;7272;53.668;9.578;2024-02-14T18:30:36;12.10;99.90
14378;DHT22;7272;53.668;9.578;2024-02-14T18:33:38;12.10;99.90
14378;DHT22;7272;53.668;9.578;2024-02-14T18:36:39;12.10;99.90
14378;DHT22;7272;53.668;9.578;2024-02-14T18:39:41;12.10;99.90
14378;DHT22;7272;53.668;9.578;2024-02-14T18:42:42;12.10;99.90
14378;DHT22;7272;53.668;9.578;2024-02-14T18:45:43;12.10;99.90
14378;DHT22;7272;53.668;9.578;2024-02-14T18:48:45;12.10;99.90
14378;DHT22;7272;53.668;9.578;2024-02-14T18:51:46;12.10;99.90
14378;DHT22;7272;53.668;9.578;2024-02-14T18:54:48;12.10;99.90
14378;DHT22;7272;53.668;9.578;2024-02-14T18:57:49;12.10;99.90
14378;DHT22;7272;53.668;9.578;2024-02-14T19:00:50;12.10;99.90
14378;DHT22;7272;53.668;9.578;2024-02-14T19:03:52;12.10;99.90
14378;DHT22;7272;53.668;9.578;2024-02-14T19:06:53;12.10;99.90
14378;DHT22;7272;53.668;9.578;2024-02-14T19:09:55;12.10;99.90
14378;DHT22;7272;53.668;9.578;2024-02-14T19:12:56;12.10;99.90
14378;DHT22;7272;53.668;9.578;2024-02-14T19:15:59;12.10;99.90
14378;DHT22;7272;53.668;9.578;2024-02-14T19:19:01;12.10;99.90
14378;DHT22;7272;53.668;9.578;2024-02-14T19:22:02;12.10;99.90
14378;DHT22;7272;53.668;9.578;2024-02-14T19:25:06;12.10;99.90
14378;DHT22;7272;53.668;9.578;2024-02-14T19:28:07;12.10;99.90
14378;DHT22;7272;53.668;9.578;2024-02-14T19:31:10;12.10;99.90
14378;DHT22;7272;53.668;9.578;2024-02-14T19:34:11;12.10;99.90
14378;DHT22;7272;53.668;9.578;2024-02-14T19:37:12;12.20;99.90
14378;DHT22;7272;53.668;9.578;2024-02-14T19:40:14;12.20;99.90
14378;DHT22;7272;53.668;9.578;2024-02-14T19:43:15;12.20;99.90